sensor_id;sensor_type;location;lat;lon;timestamp;temperature;humidity
34829;DHT22;21042;47.620;12.188;2023-09-19T00:00:18;14.80;99.90
34829;DHT22;21042;47.620;12.188;2023-09-19T00:02:58;14.80;99.90
34829;DHT22;21042;47.620;12.188;2023-09-19T00:05:29;14.80;99.90
34829;DHT22;21042;47.620;12.188;2023-09-19T00:07:57;14.70;99.90
34829;DHT22;21042;47.620;12.188;2023-09-19T00:10:28;14.70;99.90
34829;DHT22;21042;47.620;12.188;2023-09-19T00:12:58;14.70;99.90
34829;DHT22;21042;47.620;12.188;2023-09-19T00:15:27;14.70;99.90
34829;DHT22;21042;47.620;12.188;2023-09-19T00:17:56;14.60;99.90
34829;DHT22;21042;47.620;12.188;2023-09-19T00:20:23;14.70;99.90
34829;DHT22;21042;47.620;12.188;2023-09-19T00:22:51;14.70;99.90
34829;DHT22;21042;47.620;12.188;2023-09-19T00:25:20;14.60;99.90
34829;DHT22;21042;47.620;12.188;2023-09-19T00:27:47;14.60;99.90
34829;DHT22;21042;47.620;12.188;2023-09-19T00:30:17;14.60;99.90
34829;DHT22;21042;47.620;12.188;2023-09-19T00:32:47;14.60;99.90
34829;DHT22;21042;47.620;12.188;2023-09-19T00:35:14;14.60;99.90
34829;DHT22;21042;47.620;12.188;2023-09-19T00:37:42;14.60;99.90
34829;DHT22;21042;47.620;12.188;2023-09-19T00:40:10;14.60;99.90
34829;DHT22;21042;47.620;12.188;2023-09-19T00:42:46;14.70;99.90
34829;DHT22;21042;47.620;12.188;2023-09-19T00:45:15;14.70;99.90
34829;DHT22;21042;47.620;12.188;2023-09-19T00:47:47;14.60;99.90
34829;DHT22;21042;47.620;12.188;2023-09-19T00:50:19;14.60;99.90
34829;DHT22;21042;47.620;12.188;2023-09-19T00:52:50;14.70;99.90
34829;DHT22;21042;47.620;12.188;2023-09-19T00:55:19;14.70;99.90
34829;DHT22;21042;47.620;12.188;2023-09-19T00:57:47;14.70;99.90
34829;DHT22;21042;47.620;12.188;2023-09-19T01:00:16;14.70;99.90
34829;DHT22;21042;47.620;12.188;2023-09-19T01:02:46;14.60;99.90
34829;DHT22;21042;47.620;12.188;2023-09-19T01:05:13;14.70;99.90
34829;DHT22;21042;47.620;12.188;2023-09-19T01:07:40;14.70;99.90
34829;DHT22;21042;47.620;12.188;2023-09-19T01:10:17;14.60;99.90
34829;DHT22;21042;47.620;12.188;2023-09-19T01:28:34;14.60;99.90
34829;DHT22;21042;47.620;12.188;2023-09-19T01:31:09;14.60;99.90
34829;DHT22;21042;47.620;12.188;2023-09-19T01:34:12;14.60;99.90
34829;DHT22;21042;47.620;12.188;2023-09-19T01:36:39;14.50;99.90
34829;DHT22;21042;47.620;12.188;2023-09-19T01:39:10;14.50;99.90
34829;DHT22;21042;47.620;12.188;2023-09-19T01:44:44;14.60;99.90
34829;DHT22;21042;47.620;12.188;2023-09-19T01:47:26;14.60;99.90
34829;DHT22;21042;47.620;12.188;2023-09-19T01:50:17;14.60;99.90
34829;DHT22;21042;47.620;12.188;2023-09-19T01:52:52;14.60;99.90
34829;DHT22;21042;47.620;12.188;2023-09-19T01:55:21;14.60;99.90
34829;DHT22;21042;47.620;12.188;2023-09-19T01:57:58;14.60;99.90
34829;DHT22;21042;47.620;12.188;2023-09-19T02:00:27;14.70;99.90
34829;DHT22;21042;47.620;12.188;2023-09-19T02:02:56;14.70;99.90
34829;DHT22;21042;47.620;12.188;2023-09-19T02:05:26;14.60;99.90
34829;DHT22;21042;47.620;12.188;2023-09-19T02:07:54;14.70;99.90
34829;DHT22;21042;47.620;12.188;2023-09-19T02:10:22;14.70;99.90
34829;DHT22;21042;47.620;12.188;2023-09-19T02:12:50;14.70;99.90
34829;DHT22;21042;47.620;12.188;2023-09-19T02:15:17;14.70;99.90
34829;DHT22;21042;47.620;12.188;2023-09-19T02:17:44;14.70;99.90
34829;DHT22;21042;47.620;12.188;2023-09-19T02:20:12;14.80;99.90
34829;DHT22;21042;47.620;12.188;2023-09-19T02:22:42;14.80;99.90
34829;DHT22;21042;47.620;12.188;2023-09-19T02:25:09;14.80;99.90
34829;DHT22;21042;47.620;12.188;2023-09-19T02:27:36;14.70;99.90
34829;DHT22;21042;47.620;12.188;2023-09-19T02:30:04;14.80;99.90
34829;DHT22;21042;47.620;12.188;2023-09-19T02:32:32;14.80;99.90
34829;DHT22;21042;47.620;12.188;2023-09-19T02:35:06;14.80;99.90
34829;DHT22;21042;47.620;12.188;2023-09-19T02:37:33;14.80;99.90
34829;DHT22;21042;47.620;12.188;2023-09-19T02:40:00;14.80;99.90
34829;DHT22;21042;47.620;12.188;2023-09-19T02:42:27;14.80;99.90
34829;DHT22;21042;47.620;12.188;2023-09-19T02:44:53;14.80;99.90
34829;DHT22;21042;47.620;12.188;2023-09-19T02:47:21;14.80;99.90
34829;DHT22;21042;47.620;12.188;2023-09-19T02:49:48;14.80;99.90
34829;DHT22;21042;47.620;12.188;2023-09-19T02:52:15;14.80;99.90
34829;DHT22;21042;47.620;12.188;2023-09-19T02:54:42;14.80;99.90
34829;DHT22;21042;47.620;12.188;2023-09-19T02:57:11;14.80;99.90
34829;DHT22;21042;47.620;12.188;2023-09-19T02:59:41;14.80;99.90
34829;DHT22;21042;47.620;12.188;2023-09-19T03:02:09;14.70;99.90
34829;DHT22;21042;47.620;12.188;2023-09-19T03:04:36;14.70;99.90
34829;DHT22;21042;47.620;12.188;2023-09-19T03:07:04;14.70;99.90
34829;DHT22;21042;47.620;12.188;2023-09-19T03:09:31;14.60;99.90
34829;DHT22;21042;47.620;12.188;2023-09-19T03:11:57;14.70;99.90
34829;DHT22;21042;47.620;12.188;2023-09-19T03:14:26;14.70;99.90
34829;DHT22;21042;47.620;12.188;2023-09-19T03:16:58;14.70;99.90
34829;DHT22;21042;47.620;12.188;2023-09-19T03:19:26;14.70;99.90
34829;DHT22;21042;47.620;12.188;2023-09-19T03:21:57;14.70;99.90
34829;DHT22;21042;47.620;12.188;2023-09-19T03:24:24;14.70;99.90
34829;DHT22;21042;47.620;12.188;2023-09-19T03:26:51;14.70;99.90
34829;DHT22;21042;47.620;12.188;2023-09-19T03:29:18;14.80;99.90
34829;DHT22;21042;47.620;12.188;2023-09-19T03:31:46;14.70;99.90
34829;DHT22;21042;47.620;12.188;2023-09-19T03:34:13;14.70;99.90
34829;DHT22;21042;47.620;12.188;2023-09-19T03:36:39;14.70;99.90
34829;DHT22;21042;47.620;12.188;2023-09-19T03:39:08;14.70;99.90
34829;DHT22;21042;47.620;12.188;2023-09-19T03:41:35;14.70;99.90
34829;DHT22;21042;47.620;12.188;2023-09-19T03:44:03;14.70;99.90
34829;DHT22;21042;47.620;12.188;2023-09-19T03:46:31;14.80;99.90
34829;DHT22;21042;47.620;12.188;2023-09-19T03:48:59;14.70;99.90
34829;DHT22;21042;47.620;12.188;2023-09-19T03:51:26;14.70;99.90
34829;DHT22;21042;47.620;12.188;2023-09-19T03:53:53;14.70;99.90
34829;DHT22;21042;47.620;12.188;2023-09-19T03:56:20;14.60;99.90
34829;DHT22;21042;47.620;12.188;2023-09-19T03:58:46;14.70;99.90
34829;DHT22;21042;47.620;12.188;2023-09-19T04:01:14;14.70;99.90
34829;DHT22;21042;47.620;12.188;2023-09-19T04:03:41;14.70;99.90
34829;DHT22;21042;47.620;12.188;2023-09-19T04:06:15;14.70;99.90
34829;DHT22;21042;47.620;12.188;2023-09-19T04:08:43;14.70;99.90
34829;DHT22;21042;47.620;12.188;2023-09-19T04:11:11;14.70;99.90
34829;DHT22;21042;47.620;12.188;2023-09-19T04:13:38;14.70;99.90
34829;DHT22;21042;47.620;12.188;2023-09-19T04:16:05;14.60;99.90
34829;DHT22;21042;47.620;12.188;2023-09-19T04:18:33;14.70;99.90
34829;DHT22;21042;47.620;12.188;2023-09-19T04:21:04;14.70;99.90
34829;DHT22;21042;47.620;12.188;2023-09-19T04:23:33;14.80;99.90
34829;DHT22;21042;47.620;12.188;2023-09-19T04:25:59;14.70;99.90
34829;DHT22;21042;47.620;12.188;2023-09-19T04:28:26;14.70;99.90
34829;DHT22;21042;47.620;12.188;2023-09-19T04:30:54;14.70;99.90
34829;DHT22;21042;47.620;12.188;2023-09-19T04:33:22;14.70;99.90
34829;DHT22;21042;47.620;12.188;2023-09-19T04:35:50;14.70;99.90
34829;DHT22;21042;47.620;12.188;2023-09-19T04:38:20;14.70;99.90
34829;DHT22;21042;47.620;12.188;2023-09-19T04:40:47;14.70;99.90
34829;DHT22;21042;47.620;12.188;2023-09-19T04:43:14;14.80;99.90
34829;DHT22;21042;47.620;12.188;2023-09-19T04:45:42;14.80;99.90
34829;DHT22;21042;47.620;12.188;2023-09-19T04:48:09;14.80;99.90
34829;DHT22;21042;47.620;12.188;2023-09-19T04:50:35;14.80;99.90
34829;DHT22;21042;47.620;12.188;2023-09-19T04:53:03;14.80;99.90
34829;DHT22;21042;47.620;12.188;2023-09-19T04:55:31;14.80;99.90
34829;DHT22;21042;47.620;12.188;2023-09-19T04:57:59;14.80;99.90
34829;DHT22;21042;47.620;12.188;2023-09-19T05:00:26;14.80;99.90
34829;DHT22;21042;47.620;12.188;2023-09-19T05:02:57;14.80;99.90
34829;DHT22;21042;47.620;12.188;2023-09-19T05:05:25;14.80;99.90
34829;DHT22;21042;47.620;12.188;2023-09-19T05:07:53;14.80;99.90
34829;DHT22;21042;47.620;12.188;2023-09-19T05:10:21;14.80;99.90
34829;DHT22;21042;47.620;12.188;2023-09-19T05:12:48;14.80;99.90
34829;DHT22;21042;47.620;12.188;2023-09-19T05:15:18;14.80;99.90
34829;DHT22;21042;47.620;12.188;2023-09-19T05:17:49;14.80;99.90
34829;DHT22;21042;47.620;12.188;2023-09-19T05:20:21;14.80;99.90
34829;DHT22;21042;47.620;12.188;2023-09-19T05:23:01;14.80;99.90
34829;DHT22;21042;47.620;12.188;2023-09-19T05:25:30;14.80;99.90
34829;DHT22;21042;47.620;12.188;2023-09-19T05:27:58;14.70;99.90
34829;DHT22;21042;47.620;12.188;2023-09-19T05:30:26;14.70;99.90
34829;DHT22;21042;47.620;12.188;2023-09-19T05:32:56;14.70;99.90
34829;DHT22;21042;47.620;12.188;2023-09-19T05:35:23;14.70;99.90
34829;DHT22;21042;47.620;12.188;2023-09-19T05:37:51;14.70;99.90
34829;DHT22;21042;47.620;12.188;2023-09-19T05:40:18;14.80;99.90
34829;DHT22;21042;47.620;12.188;2023-09-19T05:42:46;14.80;99.90
34829;DHT22;21042;47.620;12.188;2023-09-19T05:45:14;14.80;99.90
34829;DHT22;21042;47.620;12.188;2023-09-19T05:47:41;14.80;99.90
34829;DHT22;21042;47.620;12.188;2023-09-19T05:50:09;14.80;99.90
34829;DHT22;21042;47.620;12.188;2023-09-19T05:52:37;14.80;99.90
34829;DHT22;21042;47.620;12.188;2023-09-19T05:55:07;14.80;99.90
34829;DHT22;21042;47.620;12.188;2023-09-19T05:57:35;14.80;99.90
34829;DHT22;21042;47.620;12.188;2023-09-19T06:00:01;14.90;99.90
34829;DHT22;21042;47.620;12.188;2023-09-19T06:02:37;14.80;99.90
34829;DHT22;21042;47.620;12.188;2023-09-19T06:05:05;14.80;99.90
34829;DHT22;21042;47.620;12.188;2023-09-19T06:07:37;14.90;99.90
34829;DHT22;21042;47.620;12.188;2023-09-19T06:10:04;15.00;99.90
34829;DHT22;21042;47.620;12.188;2023-09-19T06:12:41;15.00;99.90
34829;DHT22;21042;47.620;12.188;2023-09-19T06:15:12;15.10;99.90
34829;DHT22;21042;47.620;12.188;2023-09-19T06:17:46;15.10;99.90
34829;DHT22;21042;47.620;12.188;2023-09-19T06:20:13;15.20;99.90
34829;DHT22;21042;47.620;12.188;2023-09-19T06:22:42;15.30;99.90
34829;DHT22;21042;47.620;12.188;2023-09-19T06:25:10;15.40;99.90
34829;DHT22;21042;47.620;12.188;2023-09-19T06:27:51;15.40;99.90
34829;DHT22;21042;47.620;12.188;2023-09-19T06:30:22;15.40;99.90
34829;DHT22;21042;47.620;12.188;2023-09-19T06:32:58;15.50;99.90
34829;DHT22;21042;47.620;12.188;2023-09-19T06:35:25;15.70;99.90
34829;DHT22;21042;47.620;12.188;2023-09-19T06:37:53;15.70;99.90
34829;DHT22;21042;47.620;12.188;2023-09-19T06:40:20;15.70;99.90
34829;DHT22;21042;47.620;12.188;2023-09-19T06:42:50;15.70;99.90
34829;DHT22;21042;47.620;12.188;2023-09-19T06:45:18;15.70;99.90
34829;DHT22;21042;47.620;12.188;2023-09-19T06:47:49;15.70;99.90
34829;DHT22;21042;47.620;12.188;2023-09-19T06:50:20;15.80;99.90
34829;DHT22;21042;47.620;12.188;2023-09-19T06:52:51;15.80;99.90
34829;DHT22;21042;47.620;12.188;2023-09-19T06:55:19;15.80;99.90
34829;DHT22;21042;47.620;12.188;2023-09-19T06:57:47;15.80;99.90
34829;DHT22;21042;47.620;12.188;2023-09-19T07:00:14;15.80;99.90
34829;DHT22;21042;47.620;12.188;2023-09-19T07:02:55;15.80;99.90
34829;DHT22;21042;47.620;12.188;2023-09-19T07:05:23;15.70;99.90
34829;DHT22;21042;47.620;12.188;2023-09-19T07:07:50;15.60;99.90
34829;DHT22;21042;47.620;12.188;2023-09-19T07:10:16;15.60;99.90
34829;DHT22;21042;47.620;12.188;2023-09-19T07:12:45;15.60;99.90
34829;DHT22;21042;47.620;12.188;2023-09-19T07:15:11;15.70;99.90
34829;DHT22;21042;47.620;12.188;2023-09-19T07:17:38;15.80;99.90
34829;DHT22;21042;47.620;12.188;2023-09-19T07:20:05;15.90;99.90
34829;DHT22;21042;47.620;12.188;2023-09-19T07:22:34;15.90;99.90
34829;DHT22;21042;47.620;12.188;2023-09-19T07:25:01;16.10;99.90
34829;DHT22;21042;47.620;12.188;2023-09-19T07:27:28;16.10;99.90
34829;DHT22;21042;47.620;12.188;2023-09-19T07:29:55;16.10;99.90
34829;DHT22;21042;47.620;12.188;2023-09-19T07:32:22;16.10;99.90
34829;DHT22;21042;47.620;12.188;2023-09-19T07:34:50;16.20;99.90
34829;DHT22;21042;47.620;12.188;2023-09-19T07:37:17;16.20;99.90
34829;DHT22;21042;47.620;12.188;2023-09-19T07:39:43;16.20;99.90
34829;DHT22;21042;47.620;12.188;2023-09-19T07:42:11;16.30;99.90
34829;DHT22;21042;47.620;12.188;2023-09-19T07:44:44;16.40;99.90
34829;DHT22;21042;47.620;12.188;2023-09-19T07:47:17;16.40;99.90
34829;DHT22;21042;47.620;12.188;2023-09-19T07:49:46;16.50;99.90
34829;DHT22;21042;47.620;12.188;2023-09-19T07:52:14;16.50;99.90
34829;DHT22;21042;47.620;12.188;2023-09-19T07:54:42;16.60;99.90
34829;DHT22;21042;47.620;12.188;2023-09-19T07:57:11;16.60;99.90
34829;DHT22;21042;47.620;12.188;2023-09-19T07:59:37;16.80;99.90
34829;DHT22;21042;47.620;12.188;2023-09-19T08:02:05;16.90;99.90
34829;DHT22;21042;47.620;12.188;2023-09-19T08:04:32;17.00;99.90
34829;DHT22;21042;47.620;12.188;2023-09-19T08:07:00;17.00;99.90
34829;DHT22;21042;47.620;12.188;2023-09-19T08:09:29;17.10;99.90
34829;DHT22;21042;47.620;12.188;2023-09-19T08:11:59;17.30;99.90
34829;DHT22;21042;47.620;12.188;2023-09-19T08:14:29;17.40;99.90
34829;DHT22;21042;47.620;12.188;2023-09-19T08:16:57;17.50;99.90
34829;DHT22;21042;47.620;12.188;2023-09-19T08:19:25;17.50;99.90
34829;DHT22;21042;47.620;12.188;2023-09-19T08:21:56;17.60;99.90
34829;DHT22;21042;47.620;12.188;2023-09-19T08:24:26;17.80;99.90
34829;DHT22;21042;47.620;12.188;2023-09-19T08:26:57;17.70;99.90
34829;DHT22;21042;47.620;12.188;2023-09-19T08:29:24;17.80;99.90
34829;DHT22;21042;47.620;12.188;2023-09-19T08:31:55;17.80;99.90
34829;DHT22;21042;47.620;12.188;2023-09-19T08:34:23;17.90;99.90
34829;DHT22;21042;47.620;12.188;2023-09-19T08:36:52;18.10;99.90
34829;DHT22;21042;47.620;12.188;2023-09-19T08:39:25;18.20;99.90
34829;DHT22;21042;47.620;12.188;2023-09-19T08:41:59;18.40;99.90
34829;DHT22;21042;47.620;12.188;2023-09-19T08:44:29;18.50;99.90
34829;DHT22;21042;47.620;12.188;2023-09-19T08:47:30;18.50;99.90
34829;DHT22;21042;47.620;12.188;2023-09-19T08:50:07;18.50;99.90
34829;DHT22;21042;47.620;12.188;2023-09-19T08:52:43;18.70;99.90
34829;DHT22;21042;47.620;12.188;2023-09-19T08:55:12;18.80;99.90
34829;DHT22;21042;47.620;12.188;2023-09-19T08:57:41;19.10;99.90
34829;DHT22;21042;47.620;12.188;2023-09-19T09:00:10;19.00;99.90
34829;DHT22;21042;47.620;12.188;2023-09-19T09:02:39;19.00;99.90
34829;DHT22;21042;47.620;12.188;2023-09-19T09:05:09;19.00;99.90
34829;DHT22;21042;47.620;12.188;2023-09-19T09:07:40;19.00;99.90
34829;DHT22;21042;47.620;12.188;2023-09-19T09:10:07;18.80;99.90
34829;DHT22;21042;47.620;12.188;2023-09-19T09:12:35;18.90;99.90
34829;DHT22;21042;47.620;12.188;2023-09-19T09:15:04;19.00;99.90
34829;DHT22;21042;47.620;12.188;2023-09-19T09:17:30;19.40;99.90
34829;DHT22;21042;47.620;12.188;2023-09-19T09:19:58;19.60;99.90
34829;DHT22;21042;47.620;12.188;2023-09-19T09:22:25;19.80;99.90
34829;DHT22;21042;47.620;12.188;2023-09-19T09:24:54;19.80;99.90
34829;DHT22;21042;47.620;12.188;2023-09-19T09:27:24;20.10;99.90
34829;DHT22;21042;47.620;12.188;2023-09-19T09:29:53;20.10;99.90
34829;DHT22;21042;47.620;12.188;2023-09-19T09:32:29;20.20;99.90
34829;DHT22;21042;47.620;12.188;2023-09-19T09:35:01;20.20;99.90
34829;DHT22;21042;47.620;12.188;2023-09-19T09:37:29;20.20;99.90
34829;DHT22;21042;47.620;12.188;2023-09-19T09:40:02;20.00;99.90
34829;DHT22;21042;47.620;12.188;2023-09-19T09:42:41;20.10;99.90
34829;DHT22;21042;47.620;12.188;2023-09-19T09:45:21;20.30;99.90
34829;DHT22;21042;47.620;12.188;2023-09-19T09:48:00;20.40;99.90
34829;DHT22;21042;47.620;12.188;2023-09-19T09:50:32;20.50;99.90
34829;DHT22;21042;47.620;12.188;2023-09-19T09:53:19;20.60;99.90
34829;DHT22;21042;47.620;12.188;2023-09-19T09:56:05;20.70;99.90
34829;DHT22;21042;47.620;12.188;2023-09-19T09:58:37;20.60;99.90
34829;DHT22;21042;47.620;12.188;2023-09-19T10:01:07;20.50;99.90
34829;DHT22;21042;47.620;12.188;2023-09-19T10:03:38;20.60;99.90
34829;DHT22;21042;47.620;12.188;2023-09-19T10:06:16;20.50;99.90
34829;DHT22;21042;47.620;12.188;2023-09-19T10:09:05;20.50;99.90
34829;DHT22;21042;47.620;12.188;2023-09-19T10:14:15;20.60;99.90
34829;DHT22;21042;47.620;12.188;2023-09-19T10:16:48;20.50;99.90
34829;DHT22;21042;47.620;12.188;2023-09-19T10:19:21;20.60;99.90
34829;DHT22;21042;47.620;12.188;2023-09-19T10:21:54;20.70;99.90
34829;DHT22;21042;47.620;12.188;2023-09-19T10:24:23;20.80;99.90
34829;DHT22;21042;47.620;12.188;2023-09-19T10:26:51;20.80;99.90
34829;DHT22;21042;47.620;12.188;2023-09-19T10:29:21;20.70;99.90
34829;DHT22;21042;47.620;12.188;2023-09-19T10:31:52;20.40;99.90
34829;DHT22;21042;47.620;12.188;2023-09-19T10:34:20;20.10;99.90
34829;DHT22;21042;47.620;12.188;2023-09-19T10:36:51;19.90;99.90
34829;DHT22;21042;47.620;12.188;2023-09-19T10:39:18;19.70;99.90
34829;DHT22;21042;47.620;12.188;2023-09-19T10:41:50;19.60;99.90
34829;DHT22;21042;47.620;12.188;2023-09-19T10:44:24;19.50;99.90
34829;DHT22;21042;47.620;12.188;2023-09-19T10:46:52;19.30;99.90
34829;DHT22;21042;47.620;12.188;2023-09-19T10:49:20;19.30;99.90
34829;DHT22;21042;47.620;12.188;2023-09-19T10:51:52;19.20;99.90
34829;DHT22;21042;47.620;12.188;2023-09-19T10:54:23;19.20;99.90
34829;DHT22;21042;47.620;12.188;2023-09-19T10:56:53;19.10;99.90
34829;DHT22;21042;47.620;12.188;2023-09-19T10:59:21;19.10;99.90
34829;DHT22;21042;47.620;12.188;2023-09-19T11:01:53;19.10;99.90
34829;DHT22;21042;47.620;12.188;2023-09-19T11:04:30;19.20;99.90
34829;DHT22;21042;47.620;12.188;2023-09-19T11:07:11;19.30;99.90
34829;DHT22;21042;47.620;12.188;2023-09-19T11:14:58;19.80;99.90
34829;DHT22;21042;47.620;12.188;2023-09-19T11:28:27;20.30;99.90
34829;DHT22;21042;47.620;12.188;2023-09-19T11:30:55;20.70;99.90
34829;DHT22;21042;47.620;12.188;2023-09-19T11:33:30;20.90;99.90
34829;DHT22;21042;47.620;12.188;2023-09-19T11:46:27;21.20;99.90
34829;DHT22;21042;47.620;12.188;2023-09-19T11:48:55;21.40;99.90
34829;DHT22;21042;47.620;12.188;2023-09-19T11:51:40;21.80;99.90
34829;DHT22;21042;47.620;12.188;2023-09-19T11:54:13;21.90;99.90
34829;DHT22;21042;47.620;12.188;2023-09-19T11:56:45;22.00;99.90
34829;DHT22;21042;47.620;12.188;2023-09-19T11:59:20;22.20;99.90
34829;DHT22;21042;47.620;12.188;2023-09-19T12:01:53;22.00;99.90
34829;DHT22;21042;47.620;12.188;2023-09-19T12:04:41;22.10;99.90
34829;DHT22;21042;47.620;12.188;2023-09-19T12:07:12;22.20;99.90
34829;DHT22;21042;47.620;12.188;2023-09-19T12:09:47;22.40;99.90
34829;DHT22;21042;47.620;12.188;2023-09-19T12:12:23;22.50;99.90
34829;DHT22;21042;47.620;12.188;2023-09-19T12:14:54;22.30;99.90
34829;DHT22;21042;47.620;12.188;2023-09-19T12:17:34;22.20;99.90
34829;DHT22;21042;47.620;12.188;2023-09-19T12:20:02;22.30;99.90
34829;DHT22;21042;47.620;12.188;2023-09-19T12:22:46;22.50;99.90
34829;DHT22;21042;47.620;12.188;2023-09-19T12:25:14;22.80;99.90
34829;DHT22;21042;47.620;12.188;2023-09-19T12:27:47;23.10;99.90
34829;DHT22;21042;47.620;12.188;2023-09-19T12:30:15;23.40;99.90
34829;DHT22;21042;47.620;12.188;2023-09-19T12:32:47;23.60;99.90
34829;DHT22;21042;47.620;12.188;2023-09-19T12:35:32;23.60;99.90
34829;DHT22;21042;47.620;12.188;2023-09-19T12:38:03;23.30;99.90
34829;DHT22;21042;47.620;12.188;2023-09-19T12:40:31;23.00;99.90
34829;DHT22;21042;47.620;12.188;2023-09-19T12:43:00;22.80;99.90
34829;DHT22;21042;47.620;12.188;2023-09-19T12:45:31;22.70;99.90
34829;DHT22;21042;47.620;12.188;2023-09-19T12:48:21;22.30;99.90
34829;DHT22;21042;47.620;12.188;2023-09-19T12:51:09;21.80;99.90
34829;DHT22;21042;47.620;12.188;2023-09-19T12:53:57;21.50;99.90
34829;DHT22;21042;47.620;12.188;2023-09-19T12:56:24;21.60;99.90
34829;DHT22;21042;47.620;12.188;2023-09-19T12:58:56;21.70;99.90
34829;DHT22;21042;47.620;12.188;2023-09-19T13:01:26;21.60;99.90
34829;DHT22;21042;47.620;12.188;2023-09-19T13:06:53;22.20;99.90
34829;DHT22;21042;47.620;12.188;2023-09-19T13:09:22;22.70;99.90
34829;DHT22;21042;47.620;12.188;2023-09-19T13:11:55;22.90;99.90
34829;DHT22;21042;47.620;12.188;2023-09-19T13:14:23;23.10;99.90
34829;DHT22;21042;47.620;12.188;2023-09-19T13:16:59;23.20;99.90
34829;DHT22;21042;47.620;12.188;2023-09-19T13:19:50;23.30;99.90
34829;DHT22;21042;47.620;12.188;2023-09-19T13:22:44;23.30;99.90
34829;DHT22;21042;47.620;12.188;2023-09-19T13:25:21;23.50;99.90
34829;DHT22;21042;47.620;12.188;2023-09-19T13:27:50;23.60;99.90
34829;DHT22;21042;47.620;12.188;2023-09-19T13:30:26;23.50;99.90
34829;DHT22;21042;47.620;12.188;2023-09-19T13:33:09;23.50;99.90
34829;DHT22;21042;47.620;12.188;2023-09-19T13:35:38;23.40;99.90
34829;DHT22;21042;47.620;12.188;2023-09-19T13:38:07;23.30;99.90
34829;DHT22;21042;47.620;12.188;2023-09-19T13:40:38;23.10;99.90
34829;DHT22;21042;47.620;12.188;2023-09-19T13:43:06;22.80;99.90
34829;DHT22;21042;47.620;12.188;2023-09-19T13:45:33;22.70;99.90
34829;DHT22;21042;47.620;12.188;2023-09-19T13:48:00;22.80;99.90
34829;DHT22;21042;47.620;12.188;2023-09-19T13:50:27;22.80;99.90
34829;DHT22;21042;47.620;12.188;2023-09-19T13:52:55;23.00;99.90
34829;DHT22;21042;47.620;12.188;2023-09-19T13:55:22;23.10;99.90
34829;DHT22;21042;47.620;12.188;2023-09-19T13:57:49;23.10;99.90
34829;DHT22;21042;47.620;12.188;2023-09-19T14:00:22;23.30;99.90
34829;DHT22;21042;47.620;12.188;2023-09-19T14:02:49;23.30;99.90
34829;DHT22;21042;47.620;12.188;2023-09-19T14:05:18;23.20;99.90
34829;DHT22;21042;47.620;12.188;2023-09-19T14:07:45;22.90;99.90
34829;DHT22;21042;47.620;12.188;2023-09-19T14:10:13;22.90;99.90
34829;DHT22;21042;47.620;12.188;2023-09-19T14:12:40;22.80;99.90
34829;DHT22;21042;47.620;12.188;2023-09-19T14:15:11;22.70;99.90
34829;DHT22;21042;47.620;12.188;2023-09-19T14:17:39;22.60;99.90
34829;DHT22;21042;47.620;12.188;2023-09-19T14:20:07;22.40;99.90
34829;DHT22;21042;47.620;12.188;2023-09-19T14:22:34;22.50;99.90
34829;DHT22;21042;47.620;12.188;2023-09-19T14:25:01;22.50;99.90
34829;DHT22;21042;47.620;12.188;2023-09-19T14:27:28;22.40;99.90
34829;DHT22;21042;47.620;12.188;2023-09-19T14:29:55;22.40;99.90
34829;DHT22;21042;47.620;12.188;2023-09-19T14:32:23;22.30;99.90
34829;DHT22;21042;47.620;12.188;2023-09-19T14:34:50;22.40;99.90
34829;DHT22;21042;47.620;12.188;2023-09-19T14:37:17;22.20;99.90
34829;DHT22;21042;47.620;12.188;2023-09-19T14:39:44;22.10;99.90
34829;DHT22;21042;47.620;12.188;2023-09-19T14:42:11;21.90;99.90
34829;DHT22;21042;47.620;12.188;2023-09-19T14:44:39;21.90;99.90
34829;DHT22;21042;47.620;12.188;2023-09-19T14:47:06;21.90;99.90
34829;DHT22;21042;47.620;12.188;2023-09-19T14:49:34;21.70;99.90
34829;DHT22;21042;47.620;12.188;2023-09-19T14:52:01;21.50;99.90
34829;DHT22;21042;47.620;12.188;2023-09-19T14:54:30;21.20;99.90
34829;DHT22;21042;47.620;12.188;2023-09-19T14:56:57;21.10;99.90
34829;DHT22;21042;47.620;12.188;2023-09-19T14:59:31;21.00;99.90
34829;DHT22;21042;47.620;12.188;2023-09-19T15:01:58;20.90;99.90
34829;DHT22;21042;47.620;12.188;2023-09-19T15:04:26;20.80;99.90
34829;DHT22;21042;47.620;12.188;2023-09-19T15:06:54;20.80;99.90
34829;DHT22;21042;47.620;12.188;2023-09-19T15:09:23;20.80;99.90
34829;DHT22;21042;47.620;12.188;2023-09-19T15:11:55;20.80;99.90
34829;DHT22;21042;47.620;12.188;2023-09-19T15:14:22;20.80;99.90
34829;DHT22;21042;47.620;12.188;2023-09-19T15:16:51;20.90;99.90
34829;DHT22;21042;47.620;12.188;2023-09-19T15:19:18;21.30;99.90
34829;DHT22;21042;47.620;12.188;2023-09-19T15:21:45;21.80;99.90
34829;DHT22;21042;47.620;12.188;2023-09-19T15:24:12;22.40;99.90
34829;DHT22;21042;47.620;12.188;2023-09-19T15:26:39;22.60;99.90
34829;DHT22;21042;47.620;12.188;2023-09-19T15:29:06;22.70;99.90
34829;DHT22;21042;47.620;12.188;2023-09-19T15:31:33;22.70;99.90
34829;DHT22;21042;47.620;12.188;2023-09-19T15:34:00;22.60;99.90
34829;DHT22;21042;47.620;12.188;2023-09-19T15:36:27;22.40;99.90
34829;DHT22;21042;47.620;12.188;2023-09-19T15:39:05;22.30;99.90
34829;DHT22;21042;47.620;12.188;2023-09-19T15:41:37;22.30;99.90
34829;DHT22;21042;47.620;12.188;2023-09-19T15:44:11;22.20;99.90
34829;DHT22;21042;47.620;12.188;2023-09-19T15:46:38;22.00;99.90
34829;DHT22;21042;47.620;12.188;2023-09-19T15:49:05;22.00;99.90
34829;DHT22;21042;47.620;12.188;2023-09-19T15:51:32;22.00;99.90
34829;DHT22;21042;47.620;12.188;2023-09-19T15:53:59;22.00;99.90
34829;DHT22;21042;47.620;12.188;2023-09-19T15:56:27;21.90;99.90
34829;DHT22;21042;47.620;12.188;2023-09-19T15:58:55;21.60;99.90
34829;DHT22;21042;47.620;12.188;2023-09-19T16:01:22;21.50;99.90
34829;DHT22;21042;47.620;12.188;2023-09-19T16:03:51;21.60;99.90
34829;DHT22;21042;47.620;12.188;2023-09-19T16:06:22;22.00;99.90
34829;DHT22;21042;47.620;12.188;2023-09-19T16:08:54;22.30;99.90
34829;DHT22;21042;47.620;12.188;2023-09-19T16:11:22;22.60;99.90
34829;DHT22;21042;47.620;12.188;2023-09-19T16:13:51;22.70;99.90
34829;DHT22;21042;47.620;12.188;2023-09-19T16:16:20;22.70;99.90
34829;DHT22;21042;47.620;12.188;2023-09-19T16:18:51;22.30;99.90
34829;DHT22;21042;47.620;12.188;2023-09-19T16:21:19;21.80;99.90
34829;DHT22;21042;47.620;12.188;2023-09-19T16:23:50;21.50;99.90